createdAt,value
2023-05-01T00:00:13.490Z,1011.29
2023-05-01T00:01:13.488Z,1011.32
2023-05-01T00:02:13.557Z,1011.29
2023-05-01T00:03:13.643Z,1011.30
2023-05-01T00:04:13.699Z,1011.28
2023-05-01T00:05:13.486Z,1011.27
2023-05-01T00:06:13.479Z,1011.25
2023-05-01T00:07:13.448Z,1011.24
2023-05-01T00:08:13.413Z,1011.19
2023-05-01T00:09:13.397Z,1011.16
2023-05-01T00:10:13.433Z,1011.20
2023-05-01T00:11:13.385Z,1011.12
2023-05-01T00:12:13.378Z,1011.15
2023-05-01T00:13:13.349Z,1011.14
2023-05-01T00:14:13.340Z,1011.14
2023-05-01T00:15:13.344Z,1011.11
2023-05-01T00:16:13.473Z,1011.09
2023-05-01T00:17:13.392Z,1011.08
2023-05-01T00:18:13.316Z,1011.08
2023-05-01T00:19:13.321Z,1011.05
2023-05-01T00:20:13.321Z,1011.05
2023-05-01T00:21:13.288Z,1011.00
2023-05-01T00:22:13.260Z,1011.02
2023-05-01T00:23:13.248Z,1010.98
2023-05-01T00:24:13.228Z,1011.00
2023-05-01T00:25:13.220Z,1010.95
2023-05-01T00:26:13.259Z,1010.98
2023-05-01T00:27:13.230Z,1010.92
2023-05-01T00:28:13.186Z,1010.92
2023-05-01T00:29:13.175Z,1010.93
2023-05-01T00:30:13.224Z,1010.96
2023-05-01T00:31:13.188Z,1010.91
2023-05-01T00:32:13.153Z,1010.90
2023-05-01T00:33:13.137Z,1010.92
2023-05-01T00:34:13.211Z,1010.90
2023-05-01T00:35:13.119Z,1010.88
2023-05-01T00:36:13.247Z,1010.85
2023-05-01T00:37:13.111Z,1010.84
2023-05-01T00:38:13.086Z,1010.84
2023-05-01T00:39:13.069Z,1010.86
2023-05-01T00:40:13.056Z,1010.82
2023-05-01T00:41:13.056Z,1010.78
2023-05-01T00:42:13.072Z,1010.78
2023-05-01T00:43:13.059Z,1010.78
2023-05-01T00:44:13.051Z,1010.76
2023-05-01T00:45:13.004Z,1010.78
2023-05-01T00:46:13.061Z,1010.70
2023-05-01T00:47:12.983Z,1010.73
2023-05-01T00:48:12.992Z,1010.70
2023-05-01T00:49:12.969Z,1010.72
2023-05-01T00:50:12.969Z,1010.72
2023-05-01T00:51:13.051Z,1010.69
2023-05-01T00:52:12.966Z,1010.68
2023-05-01T00:53:12.924Z,1010.64
2023-05-01T00:54:12.920Z,1010.65
2023-05-01T00:55:12.904Z,1010.66
2023-05-01T00:56:12.944Z,1010.60
2023-05-01T00:57:12.870Z,1010.57
2023-05-01T00:58:12.870Z,1010.59
2023-05-01T00:59:12.853Z,1010.60
2023-05-01T01:00:12.845Z,1010.54
2023-05-01T01:01:12.896Z,1010.55
2023-05-01T01:02:12.830Z,1010.51
2023-05-01T01:03:12.814Z,1010.54
2023-05-01T01:04:12.820Z,1010.51
2023-05-01T01:05:12.849Z,1010.47
2023-05-01T01:06:12.808Z,1010.50
2023-05-01T01:07:12.813Z,1010.49
2023-05-01T01:08:12.964Z,1010.49
2023-05-01T01:09:12.742Z,1010.45
2023-05-01T01:10:12.733Z,1010.44
2023-05-01T01:11:12.719Z,1010.41
2023-05-01T01:12:12.757Z,1010.42
2023-05-01T01:13:12.747Z,1010.39
2023-05-01T01:14:12.730Z,1010.41
2023-05-01T01:15:12.681Z,1010.37
2023-05-01T01:16:12.704Z,1010.41
2023-05-01T01:17:12.856Z,1010.38
2023-05-01T01:18:12.725Z,1010.37
2023-05-01T01:19:12.636Z,1010.43
2023-05-01T01:20:12.620Z,1010.39
2023-05-01T01:21:12.616Z,1010.35
2023-05-01T01:22:12.624Z,1010.37
2023-05-01T01:23:13.091Z,1010.31
2023-05-01T01:24:12.582Z,1010.35
2023-05-01T01:25:12.574Z,1010.34
2023-05-01T01:26:12.582Z,1010.35
2023-05-01T01:27:12.728Z,1010.28
2023-05-01T01:28:12.573Z,1010.34
2023-05-01T01:29:12.561Z,1010.31
2023-05-01T01:30:12.543Z,1010.30
2023-05-01T01:31:12.549Z,1010.28
2023-05-01T01:32:12.535Z,1010.28
2023-05-01T01:33:12.482Z,1010.26
2023-05-01T01:34:12.498Z,1010.28
2023-05-01T01:35:12.468Z,1010.29
2023-05-01T01:36:12.456Z,1010.28
2023-05-01T01:37:12.435Z,1010.24
2023-05-01T01:38:12.460Z,1010.29
2023-05-01T01:39:12.418Z,1010.25
2023-05-01T01:40:12.411Z,1010.26
2023-05-01T01:41:12.399Z,1010.23
2023-05-01T01:42:12.399Z,1010.25
2023-05-01T01:43:12.404Z,1010.23
2023-05-01T01:44:12.369Z,1010.19
2023-05-01T01:45:12.365Z,1010.16
2023-05-01T01:46:12.378Z,1010.17
2023-05-01T01:47:12.329Z,1010.15
2023-05-01T01:48:12.374Z,1010.13
2023-05-01T01:49:12.345Z,1010.14
2023-05-01T01:50:12.301Z,1010.11
2023-05-01T01:51:12.310Z,1010.11
2023-05-01T01:52:12.300Z,1010.09
2023-05-01T01:53:12.268Z,1010.08
2023-05-01T01:54:12.288Z,1010.05
2023-05-01T01:55:12.249Z,1010.03
2023-05-01T01:56:12.250Z,1010.04
2023-05-01T01:57:12.218Z,1010.01
2023-05-01T01:58:12.239Z,1010.00
2023-05-01T01:59:12.249Z,1010.05
2023-05-01T02:00:12.190Z,1010.03
2023-05-01T02:01:12.230Z,1009.98
2023-05-01T02:02:12.229Z,1009.99
2023-05-01T02:03:12.272Z,1009.97
2023-05-01T02:04:12.258Z,1009.99
2023-05-01T02:05:12.126Z,1009.94
2023-05-01T02:06:12.201Z,1009.94
2023-05-01T02:07:12.108Z,1009.90
2023-05-01T02:08:12.120Z,1009.91
2023-05-01T02:09:12.093Z,1009.89
2023-05-01T02:10:12.106Z,1009.89
2023-05-01T02:11:12.103Z,1009.88
2023-05-01T02:12:12.074Z,1009.86
2023-05-01T02:13:12.046Z,1009.83
2023-05-01T02:14:12.041Z,1009.83
2023-05-01T02:15:14.363Z,1009.82
2023-05-01T02:16:12.074Z,1009.85
2023-05-01T02:17:12.013Z,1009.80
2023-05-01T02:18:11.995Z,1009.79
2023-05-01T02:19:11.979Z,1009.79
2023-05-01T02:20:11.977Z,1009.74
2023-05-01T02:21:12.010Z,1009.75
2023-05-01T02:22:11.970Z,1009.74
2023-05-01T02:23:11.974Z,1009.73
2023-05-01T02:24:11.933Z,1009.72
2023-05-01T02:25:12.010Z,1009.69
2023-05-01T02:26:11.925Z,1009.70
2023-05-01T02:27:11.919Z,1009.68
2023-05-01T02:28:11.887Z,1009.71
2023-05-01T02:29:11.879Z,1009.65
2023-05-01T02:30:13.308Z,1009.60
2023-05-01T02:31:11.880Z,1009.63
2023-05-01T02:32:11.852Z,1009.60
2023-05-01T02:33:11.832Z,1009.62
2023-05-01T02:34:11.825Z,1009.58
2023-05-01T02:35:11.854Z,1009.58
2023-05-01T02:36:11.878Z,1009.59
2023-05-01T02:37:11.791Z,1009.60
2023-05-01T02:38:11.784Z,1009.57
2023-05-01T02:39:11.769Z,1009.58
2023-05-01T02:40:11.765Z,1009.55
2023-05-01T02:41:11.752Z,1009.56
2023-05-01T02:42:11.779Z,1009.59
2023-05-01T02:43:11.781Z,1009.56
2023-05-01T02:44:11.726Z,1009.55
2023-05-01T02:45:11.699Z,1009.51
2023-05-01T02:46:11.741Z,1009.52
2023-05-01T02:47:11.798Z,1009.49
2023-05-01T02:48:11.735Z,1009.48
2023-05-01T02:49:11.688Z,1009.49
2023-05-01T02:50:11.661Z,1009.45
2023-05-01T02:51:11.687Z,1009.43
2023-05-01T02:52:11.642Z,1009.44
2023-05-01T02:53:11.663Z,1009.43
2023-05-01T02:54:11.606Z,1009.42
2023-05-01T02:55:11.593Z,1009.41
2023-05-01T02:56:11.584Z,1009.39
2023-05-01T02:57:11.652Z,1009.38
2023-05-01T02:58:11.569Z,1009.44
2023-05-01T02:59:11.567Z,1009.43
2023-05-01T03:00:11.619Z,1009.41
2023-05-01T03:01:11.642Z,1009.41
2023-05-01T03:02:11.528Z,1009.41
2023-05-01T03:03:11.548Z,1009.37
2023-05-01T03:04:11.534Z,1009.35
2023-05-01T03:05:11.487Z,1009.37
2023-05-01T03:06:11.666Z,1009.31
2023-05-01T03:07:11.460Z,1009.31
2023-05-01T03:08:11.470Z,1009.29
2023-05-01T03:09:11.440Z,1009.29
2023-05-01T03:10:11.449Z,1009.22
2023-05-01T03:11:11.485Z,1009.27
2023-05-01T03:12:11.458Z,1009.24
2023-05-01T03:13:11.398Z,1009.19
2023-05-01T03:14:11.385Z,1009.22
2023-05-01T03:15:11.375Z,1009.15
2023-05-01T03:16:11.389Z,1009.18
2023-05-01T03:17:11.393Z,1009.15
2023-05-01T03:18:11.457Z,1009.15
2023-05-01T03:19:11.321Z,1009.13
2023-05-01T03:20:11.325Z,1009.13
2023-05-01T03:21:11.307Z,1009.13
2023-05-01T03:22:11.359Z,1009.10
2023-05-01T03:23:11.284Z,1009.05
2023-05-01T03:24:11.277Z,1009.07
2023-05-01T03:25:11.264Z,1009.08
2023-05-01T03:26:11.261Z,1009.06
2023-05-01T03:27:11.266Z,1009.04
2023-05-01T03:28:11.241Z,1009.05
2023-05-01T03:29:11.219Z,1009.03
2023-05-01T03:30:11.212Z,1009.05
2023-05-01T03:31:11.195Z,1009.00
2023-05-01T03:32:11.307Z,1008.99
2023-05-01T03:33:11.294Z,1008.99
2023-05-01T03:34:11.167Z,1008.99
2023-05-01T03:35:11.224Z,1009.00
2023-05-01T03:36:11.180Z,1008.98
2023-05-01T03:37:11.133Z,1008.94
2023-05-01T03:38:11.186Z,1008.92
2023-05-01T03:39:11.838Z,1008.96
2023-05-01T03:40:11.100Z,1008.93
2023-05-01T03:41:11.096Z,1008.96
2023-05-01T03:42:11.086Z,1008.94
2023-05-01T03:43:11.076Z,1008.91
2023-05-01T03:44:11.178Z,1008.88
2023-05-01T03:45:11.039Z,1008.88
2023-05-01T03:46:11.129Z,1008.84
2023-05-01T03:47:11.089Z,1008.90
2023-05-01T03:48:11.054Z,1008.86
2023-05-01T03:49:10.996Z,1008.86
2023-05-01T03:50:10.996Z,1008.86
2023-05-01T03:51:10.983Z,1008.84
2023-05-01T03:52:10.970Z,1008.82
2023-05-01T03:53:10.989Z,1008.79
2023-05-01T03:54:10.953Z,1008.81
2023-05-01T03:55:10.934Z,1008.81
2023-05-01T03:56:10.933Z,1008.80
2023-05-01T03:57:10.913Z,1008.79
2023-05-01T03:58:10.913Z,1008.80
2023-05-01T03:59:10.942Z,1008.76
2023-05-01T04:00:10.888Z,1008.76
2023-05-01T04:01:10.902Z,1008.77
2023-05-01T04:02:10.921Z,1008.75
2023-05-01T04:03:10.964Z,1008.77
2023-05-01T04:04:11.045Z,1008.75
2023-05-01T04:05:10.848Z,1008.77
2023-05-01T04:06:10.901Z,1008.77
2023-05-01T04:07:10.843Z,1008.75
2023-05-01T04:08:10.839Z,1008.74
2023-05-01T04:09:10.786Z,1008.79
2023-05-01T04:10:10.785Z,1008.75
2023-05-01T04:11:10.757Z,1008.75
2023-05-01T04:12:10.760Z,1008.79
2023-05-01T04:13:10.746Z,1008.74
2023-05-01T04:14:10.771Z,1008.74
2023-05-01T04:15:10.719Z,1008.72
2023-05-01T04:16:10.802Z,1008.71
2023-05-01T04:17:10.696Z,1008.70
2023-05-01T04:18:10.762Z,1008.67
2023-05-01T04:19:10.685Z,1008.67
2023-05-01T04:20:10.664Z,1008.68
2023-05-01T04:21:10.650Z,1008.69
2023-05-01T04:22:10.659Z,1008.71
2023-05-01T04:23:10.635Z,1008.70
2023-05-01T04:24:10.668Z,1008.70
2023-05-01T04:25:10.611Z,1008.68
2023-05-01T04:26:10.610Z,1008.65
2023-05-01T04:27:10.603Z,1008.66
2023-05-01T04:28:10.629Z,1008.70
2023-05-01T04:29:10.583Z,1008.63
2023-05-01T04:30:10.559Z,1008.64
2023-05-01T04:31:10.590Z,1008.59
2023-05-01T04:32:10.534Z,1008.61
2023-05-01T04:33:10.635Z,1008.58
2023-05-01T04:34:10.592Z,1008.60
2023-05-01T04:35:10.505Z,1008.58
2023-05-01T04:36:10.490Z,1008.58
2023-05-01T04:37:10.483Z,1008.60
2023-05-01T04:38:10.628Z,1008.57
2023-05-01T04:39:10.461Z,1008.55
2023-05-01T04:40:11.672Z,1008.57
2023-05-01T04:41:10.425Z,1008.61
2023-05-01T04:42:10.466Z,1008.55
2023-05-01T04:43:10.408Z,1008.53
2023-05-01T04:44:10.410Z,1008.53
2023-05-01T04:45:10.384Z,1008.55
2023-05-01T04:46:10.442Z,1008.56
2023-05-01T04:47:10.438Z,1008.54
2023-05-01T04:48:10.593Z,1008.55
2023-05-01T04:49:10.353Z,1008.53
2023-05-01T04:50:11.453Z,1008.56
2023-05-01T04:51:10.322Z,1008.54
2023-05-01T04:52:10.314Z,1008.55
2023-05-01T04:53:10.296Z,1008.59
2023-05-01T04:54:10.286Z,1008.55
2023-05-01T04:55:13.479Z,1008.53
2023-05-01T04:56:10.282Z,1008.54
2023-05-01T04:57:10.265Z,1008.57
2023-05-01T04:58:10.273Z,1008.59
2023-05-01T04:59:10.277Z,1008.57
2023-05-01T05:00:10.229Z,1008.54
2023-05-01T05:01:10.239Z,1008.57
2023-05-01T05:02:10.276Z,1008.55
2023-05-01T05:03:10.282Z,1008.54
2023-05-01T05:04:10.204Z,1008.58
2023-05-01T05:05:10.224Z,1008.50
2023-05-01T05:06:10.179Z,1008.52
2023-05-01T05:07:10.168Z,1008.51
2023-05-01T05:08:10.150Z,1008.52
2023-05-01T05:09:10.134Z,1008.54
2023-05-01T05:10:10.211Z,1008.61
2023-05-01T05:11:10.134Z,1008.57
2023-05-01T05:12:10.100Z,1008.52
2023-05-01T05:13:10.111Z,1008.58
2023-05-01T05:14:10.095Z,1008.57
2023-05-01T05:15:10.078Z,1008.58
2023-05-01T05:16:10.102Z,1008.60
2023-05-01T05:17:10.104Z,1008.57
2023-05-01T05:18:10.085Z,1008.57
2023-05-01T05:19:10.026Z,1008.58
2023-05-01T05:20:10.041Z,1008.56
2023-05-01T05:21:10.004Z,1008.55
2023-05-01T05:22:09.982Z,1008.56
2023-05-01T05:23:10.973Z,1008.58
2023-05-01T05:24:10.007Z,1008.57
2023-05-01T05:25:09.962Z,1008.57
2023-05-01T05:26:09.941Z,1008.59
2023-05-01T05:27:09.931Z,1008.59
2023-05-01T05:28:09.929Z,1008.58
2023-05-01T05:29:09.926Z,1008.56
2023-05-01T05:30:09.984Z,1008.56
2023-05-01T05:31:09.895Z,1008.60
2023-05-01T05:32:09.958Z,1008.58
2023-05-01T05:33:09.922Z,1008.57
2023-05-01T05:34:09.857Z,1008.56
2023-05-01T05:35:09.850Z,1008.54
2023-05-01T05:36:09.938Z,1008.54
2023-05-01T05:37:09.840Z,1008.59
2023-05-01T05:38:09.819Z,1008.59
2023-05-01T05:39:09.930Z,1008.54
2023-05-01T05:40:09.796Z,1008.56
2023-05-01T05:41:09.793Z,1008.54
2023-05-01T05:42:09.804Z,1008.56
2023-05-01T05:43:09.772Z,1008.56
2023-05-01T05:44:09.744Z,1008.53
2023-05-01T05:45:09.743Z,1008.58
2023-05-01T05:46:09.781Z,1008.53
2023-05-01T05:47:09.809Z,1008.52
2023-05-01T05:48:09.713Z,1008.51
2023-05-01T05:49:09.741Z,1008.50
2023-05-01T05:50:09.691Z,1008.50
2023-05-01T05:51:09.691Z,1008.43
2023-05-01T05:52:09.731Z,1008.48
2023-05-01T05:53:09.782Z,1008.47
2023-05-01T05:54:09.639Z,1008.48
2023-05-01T05:55:09.756Z,1008.46
2023-05-01T05:56:09.650Z,1008.47
2023-05-01T05:57:09.613Z,1008.46
2023-05-01T05:58:09.599Z,1008.46
2023-05-01T05:59:09.594Z,1008.45
2023-05-01T06:00:09.576Z,1008.46
2023-05-01T06:01:09.606Z,1008.43
2023-05-01T06:02:09.596Z,1008.43
2023-05-01T06:03:09.670Z,1008.46
2023-05-01T06:04:09.557Z,1008.45
2023-05-01T06:05:09.574Z,1008.41
2023-05-01T06:06:09.858Z,1008.43
2023-05-01T06:07:09.546Z,1008.41
2023-05-01T06:08:09.489Z,1008.42
2023-05-01T06:09:09.488Z,1008.39
2023-05-01T06:10:09.547Z,1008.43
2023-05-01T06:11:09.508Z,1008.40
2023-05-01T06:12:09.446Z,1008.40
2023-05-01T06:13:13.518Z,1008.40
2023-05-01T06:14:10.460Z,1008.41
2023-05-01T06:15:09.419Z,1008.37
2023-05-01T06:16:09.445Z,1008.38
2023-05-01T06:17:09.408Z,1008.35
2023-05-01T06:18:09.470Z,1008.39
2023-05-01T06:19:09.439Z,1008.36
2023-05-01T06:20:09.372Z,1008.39
2023-05-01T06:21:09.354Z,1008.34
2023-05-01T06:22:09.352Z,1008.38
2023-05-01T06:23:10.091Z,1008.38
2023-05-01T06:24:10.078Z,1008.43
2023-05-01T06:25:09.318Z,1008.41
2023-05-01T06:26:09.291Z,1008.42
2023-05-01T06:27:09.295Z,1008.41
2023-05-01T06:28:09.274Z,1008.36
2023-05-01T06:29:09.297Z,1008.41
2023-05-01T06:30:09.382Z,1008.38
2023-05-01T06:31:09.297Z,1008.43
2023-05-01T06:32:09.230Z,1008.42
2023-05-01T06:33:09.249Z,1008.35
2023-05-01T06:34:09.228Z,1008.39
2023-05-01T06:35:09.737Z,1008.38
2023-05-01T06:36:09.218Z,1008.39
2023-05-01T06:37:10.678Z,1008.37
2023-05-01T06:38:09.204Z,1008.39
2023-05-01T06:39:09.173Z,1008.34
2023-05-01T06:40:09.167Z,1008.37
2023-05-01T06:41:09.161Z,1008.35
2023-05-01T06:42:09.117Z,1008.36
2023-05-01T06:43:09.149Z,1008.38
2023-05-01T06:44:09.148Z,1008.37
2023-05-01T06:45:09.097Z,1008.34
2023-05-01T06:46:09.177Z,1008.34
2023-05-01T06:47:09.135Z,1008.31
2023-05-01T06:48:09.119Z,1008.35
2023-05-01T06:49:09.037Z,1008.31
2023-05-01T06:50:11.775Z,1008.38
2023-05-01T06:51:09.021Z,1008.35
2023-05-01T06:52:09.008Z,1008.42
2023-05-01T06:53:09.007Z,1008.33
2023-05-01T06:54:09.034Z,1008.33
2023-05-01T06:55:09.039Z,1008.35
2023-05-01T06:56:08.997Z,1008.35
2023-05-01T06:57:08.954Z,1008.33
2023-05-01T06:58:22.354Z,1008.34
2023-05-01T06:59:09.951Z,1008.36
2023-05-01T07:00:08.920Z,1008.42
2023-05-01T07:01:08.983Z,1008.37
2023-05-01T07:02:08.942Z,1008.37
2023-05-01T07:03:08.932Z,1008.40
2023-05-01T07:04:08.976Z,1008.39
2023-05-01T07:05:08.883Z,1008.37
2023-05-01T07:06:08.883Z,1008.39
2023-05-01T07:07:08.842Z,1008.37
2023-05-01T07:08:08.860Z,1008.39
2023-05-01T07:09:08.821Z,1008.43
2023-05-01T07:10:08.822Z,1008.38
2023-05-01T07:11:09.239Z,1008.40
2023-05-01T07:12:08.800Z,1008.41
2023-05-01T07:13:08.785Z,1008.39
2023-05-01T07:14:08.767Z,1008.37
2023-05-01T07:15:08.765Z,1008.34
2023-05-01T07:16:10.989Z,1008.36
2023-05-01T07:17:08.751Z,1008.35
2023-05-01T07:18:08.920Z,1008.34
2023-05-01T07:19:09.014Z,1008.31
2023-05-01T07:20:08.708Z,1008.29
2023-05-01T07:21:08.695Z,1008.32
2023-05-01T07:22:08.680Z,1008.30
2023-05-01T07:23:08.728Z,1008.34
2023-05-01T07:24:08.703Z,1008.28
2023-05-01T07:25:08.688Z,1008.31
2023-05-01T07:26:08.686Z,1008.32
2023-05-01T07:27:08.626Z,1008.35
2023-05-01T07:28:08.653Z,1008.34
2023-05-01T07:29:08.618Z,1008.35
2023-05-01T07:30:10.471Z,1008.33
2023-05-01T07:31:08.599Z,1008.36
2023-05-01T07:32:08.631Z,1008.36
2023-05-01T07:33:08.584Z,1008.36
2023-05-01T07:34:08.615Z,1008.35
2023-05-01T07:35:08.547Z,1008.33
2023-05-01T07:36:08.533Z,1008.38
2023-05-01T07:37:08.531Z,1008.33
2023-05-01T07:38:08.502Z,1008.39
2023-05-01T07:39:08.498Z,1008.34
2023-05-01T07:40:09.625Z,1008.33
2023-05-01T07:41:08.479Z,1008.30
2023-05-01T07:42:08.465Z,1008.34
2023-05-01T07:43:08.454Z,1008.32
2023-05-01T07:44:08.453Z,1008.27
2023-05-01T07:45:08.502Z,1008.28
2023-05-01T07:46:08.459Z,1008.33
2023-05-01T07:47:08.414Z,1008.30
2023-05-01T07:48:08.721Z,1008.30
2023-05-01T07:49:08.392Z,1008.25
2023-05-01T07:50:08.368Z,1008.22
2023-05-01T07:51:08.435Z,1008.22
2023-05-01T07:52:08.353Z,1008.20
2023-05-01T07:53:08.422Z,1008.21
2023-05-01T07:54:08.337Z,1008.21
2023-05-01T07:55:08.338Z,1008.20
2023-05-01T07:56:09.083Z,1008.16
2023-05-01T07:57:08.300Z,1008.20
2023-05-01T07:58:08.289Z,1008.18
2023-05-01T07:59:08.283Z,1008.16
2023-05-01T08:00:08.294Z,1008.19
2023-05-01T08:01:08.258Z,1008.25
2023-05-01T08:02:08.312Z,1008.15
2023-05-01T08:03:08.461Z,1008.18
2023-05-01T08:04:08.308Z,1008.17
2023-05-01T08:05:08.279Z,1008.15
2023-05-01T08:06:09.192Z,1008.17
2023-05-01T08:07:08.241Z,1008.14
2023-05-01T08:08:08.195Z,1008.12
2023-05-01T08:09:08.188Z,1008.14
2023-05-01T08:10:08.159Z,1008.15
2023-05-01T08:11:08.519Z,1008.15
2023-05-01T08:12:08.140Z,1008.10
2023-05-01T08:13:08.158Z,1008.08
2023-05-01T08:14:08.133Z,1008.09
2023-05-01T08:15:09.206Z,1008.11
2023-05-01T08:16:08.272Z,1008.11
2023-05-01T08:17:08.117Z,1008.07
2023-05-01T08:18:08.384Z,1008.05
2023-05-01T08:19:08.104Z,1008.08
2023-05-01T08:20:08.091Z,1008.06
2023-05-01T08:21:08.074Z,1008.10
2023-05-01T08:22:08.026Z,1008.06
2023-05-01T08:23:08.024Z,1008.03
2023-05-01T08:24:08.019Z,1008.05
2023-05-01T08:25:08.065Z,1008.07
2023-05-01T08:26:08.100Z,1008.03
2023-05-01T08:27:07.976Z,1008.00
2023-05-01T08:28:07.986Z,1008.00
2023-05-01T08:29:07.953Z,1008.02
2023-05-01T08:30:07.952Z,1007.96
2023-05-01T08:31:07.970Z,1008.01
2023-05-01T08:32:07.971Z,1007.99
2023-05-01T08:33:07.971Z,1007.98
2023-05-01T08:34:07.898Z,1007.98
2023-05-01T08:35:07.904Z,1007.96
2023-05-01T08:36:07.913Z,1007.99
2023-05-01T08:37:07.959Z,1007.93
2023-05-01T08:38:07.866Z,1007.92
2023-05-01T08:39:07.864Z,1007.92
2023-05-01T08:40:11.050Z,1007.90
2023-05-01T08:41:07.824Z,1007.91
2023-05-01T08:42:07.822Z,1007.89
2023-05-01T08:43:07.921Z,1007.88
2023-05-01T08:44:07.806Z,1007.89
2023-05-01T08:45:07.793Z,1007.89
2023-05-01T08:46:09.930Z,1007.92
2023-05-01T08:47:07.961Z,1007.89
2023-05-01T08:48:07.846Z,1007.88
2023-05-01T08:49:07.761Z,1007.88
2023-05-01T08:50:07.725Z,1007.91
2023-05-01T08:51:07.728Z,1007.96
2023-05-01T08:52:07.710Z,1007.93
2023-05-01T08:53:07.698Z,1007.94
2023-05-01T08:54:07.956Z,1007.90
2023-05-01T08:55:07.675Z,1007.92
2023-05-01T08:56:07.677Z,1007.90
2023-05-01T08:57:10.145Z,1007.92
2023-05-01T08:58:07.654Z,1007.89
2023-05-01T08:59:07.620Z,1007.91
2023-05-01T09:00:11.006Z,1007.86
2023-05-01T09:01:07.681Z,1007.88
2023-05-01T09:02:07.733Z,1007.88
2023-05-01T09:03:07.734Z,1007.86
2023-05-01T09:04:07.967Z,1007.82
2023-05-01T09:05:07.571Z,1007.84
2023-05-01T09:06:09.579Z,1007.80
2023-05-01T09:07:07.580Z,1007.82
2023-05-01T09:08:07.521Z,1007.85
2023-05-01T09:09:07.521Z,1007.81
2023-05-01T09:10:07.500Z,1007.79
2023-05-01T09:11:07.489Z,1007.83
2023-05-01T09:12:07.504Z,1007.83
2023-05-01T09:13:07.603Z,1007.82
2023-05-01T09:14:07.523Z,1007.79
2023-05-01T09:15:07.456Z,1007.76
2023-05-01T09:16:07.461Z,1007.80
2023-05-01T09:17:07.423Z,1007.81
2023-05-01T09:18:07.530Z,1007.81
2023-05-01T09:19:07.424Z,1007.84
2023-05-01T09:20:07.521Z,1007.82
2023-05-01T09:21:07.389Z,1007.80
2023-05-01T09:22:09.167Z,1007.81
2023-05-01T09:23:07.389Z,1007.79
2023-05-01T09:24:07.416Z,1007.79
2023-05-01T09:25:07.342Z,1007.76
2023-05-01T09:26:07.339Z,1007.75
2023-05-01T09:27:07.320Z,1007.79
2023-05-01T09:28:07.334Z,1007.75
2023-05-01T09:29:07.337Z,1007.77
2023-05-01T09:30:07.285Z,1007.74
2023-05-01T09:31:07.282Z,1007.73
2023-05-01T09:32:07.291Z,1007.69
2023-05-01T09:33:07.324Z,1007.75
2023-05-01T09:34:07.689Z,1007.72
2023-05-01T09:35:07.272Z,1007.69
2023-05-01T09:36:07.230Z,1007.71
2023-05-01T09:37:07.240Z,1007.71
2023-05-01T09:38:07.207Z,1007.69
2023-05-01T09:39:07.189Z,1007.71
2023-05-01T09:40:07.208Z,1007.68
2023-05-01T09:41:07.170Z,1007.66
2023-05-01T09:42:09.205Z,1007.68
2023-05-01T09:43:07.161Z,1007.70
2023-05-01T09:44:07.138Z,1007.68
2023-05-01T09:45:07.116Z,1007.66
2023-05-01T09:46:07.258Z,1007.67
2023-05-01T09:47:07.106Z,1007.71
2023-05-01T09:48:07.608Z,1007.67
2023-05-01T09:49:07.084Z,1007.68
2023-05-01T09:50:07.076Z,1007.68
2023-05-01T09:51:07.084Z,1007.66
2023-05-01T09:52:07.089Z,1007.68
2023-05-01T09:53:07.044Z,1007.64
2023-05-01T09:54:07.072Z,1007.68
2023-05-01T09:55:07.020Z,1007.63
2023-05-01T09:56:07.113Z,1007.63
2023-05-01T09:57:07.005Z,1007.67
2023-05-01T09:58:07.052Z,1007.67
2023-05-01T10:00:07.020Z,1007.64
2023-05-01T10:01:06.995Z,1007.67
2023-05-01T10:02:07.057Z,1007.64
2023-05-01T10:03:08.542Z,1007.62
2023-05-01T10:04:07.224Z,1007.63
2023-05-01T10:05:06.908Z,1007.61
2023-05-01T10:06:09.124Z,1007.59
2023-05-01T10:07:07.151Z,1007.64
2023-05-01T10:08:06.876Z,1007.59
2023-05-01T10:09:06.895Z,1007.59
2023-05-01T10:10:06.861Z,1007.60
2023-05-01T10:11:07.982Z,1007.63
2023-05-01T10:12:06.839Z,1007.62
2023-05-01T10:13:06.870Z,1007.58
2023-05-01T10:14:06.827Z,1007.62
2023-05-01T10:15:17.382Z,1007.65
2023-05-01T10:16:07.803Z,1007.62
2023-05-01T10:17:06.844Z,1007.62
2023-05-01T10:18:06.892Z,1007.61
2023-05-01T10:19:06.758Z,1007.61
2023-05-01T10:20:06.764Z,1007.55
2023-05-01T10:21:06.743Z,1007.59
2023-05-01T10:22:06.763Z,1007.52
2023-05-01T10:23:06.723Z,1007.54
2023-05-01T10:24:07.130Z,1007.52
2023-05-01T10:25:06.695Z,1007.54
2023-05-01T10:26:07.192Z,1007.55
2023-05-01T10:27:06.673Z,1007.53
2023-05-01T10:28:06.674Z,1007.55
2023-05-01T10:29:08.837Z,1007.56
2023-05-01T10:30:06.659Z,1007.57
2023-05-01T10:31:06.683Z,1007.57
2023-05-01T10:32:06.698Z,1007.61
2023-05-01T10:33:06.620Z,1007.59
2023-05-01T10:34:06.628Z,1007.56
2023-05-01T10:35:06.651Z,1007.57
2023-05-01T10:36:06.670Z,1007.51
2023-05-01T10:37:06.589Z,1007.51
2023-05-01T10:38:06.563Z,1007.48
2023-05-01T10:39:06.537Z,1007.53
2023-05-01T10:40:06.545Z,1007.45
2023-05-01T10:41:06.531Z,1007.46
2023-05-01T10:42:06.938Z,1007.44
2023-05-01T10:43:06.499Z,1007.45
2023-05-01T10:44:06.516Z,1007.46
2023-05-01T10:45:06.476Z,1007.46
2023-05-01T10:46:06.492Z,1007.47
2023-05-01T10:47:06.467Z,1007.44
2023-05-01T10:48:06.616Z,1007.42
2023-05-01T10:49:06.435Z,1007.41
2023-05-01T10:50:06.439Z,1007.39
2023-05-01T10:51:06.490Z,1007.42
2023-05-01T10:52:06.407Z,1007.39
2023-05-01T10:53:06.411Z,1007.37
2023-05-01T10:54:06.409Z,1007.35
2023-05-01T10:55:06.377Z,1007.37
2023-05-01T10:56:06.356Z,1007.37
2023-05-01T10:57:11.162Z,1007.35
2023-05-01T10:58:06.340Z,1007.35
2023-05-01T10:59:06.325Z,1007.32
2023-05-01T11:00:06.316Z,1007.30
2023-05-01T11:01:06.347Z,1007.30
2023-05-01T11:02:06.349Z,1007.29
2023-05-01T11:03:06.359Z,1007.33
2023-05-01T11:04:06.284Z,1007.30
2023-05-01T11:05:06.354Z,1007.26
2023-05-01T11:06:06.374Z,1007.29
2023-05-01T11:07:06.483Z,1007.24
2023-05-01T11:08:06.228Z,1007.28
2023-05-01T11:09:06.216Z,1007.28
2023-05-01T11:10:06.668Z,1007.24
2023-05-01T11:11:06.192Z,1007.23
2023-05-01T11:12:06.223Z,1007.30
2023-05-01T11:13:06.180Z,1007.27
2023-05-01T11:14:06.170Z,1007.33
2023-05-01T11:15:06.153Z,1007.33
2023-05-01T11:16:06.160Z,1007.25
2023-05-01T11:17:08.485Z,1007.20
2023-05-01T11:18:06.317Z,1007.26
2023-05-01T11:19:06.116Z,1007.17
2023-05-01T11:20:06.103Z,1007.20
2023-05-01T11:21:06.088Z,1007.18
2023-05-01T11:22:06.274Z,1007.17
2023-05-01T11:23:06.061Z,1007.21
2023-05-01T11:24:06.062Z,1007.20
2023-05-01T11:25:06.110Z,1007.13
2023-05-01T11:26:06.052Z,1007.14
2023-05-01T11:27:06.021Z,1007.10
2023-05-01T11:28:06.023Z,1007.11
2023-05-01T11:29:06.000Z,1007.09
2023-05-01T11:30:06.010Z,1007.12
2023-05-01T11:31:06.150Z,1007.14
2023-05-01T11:32:05.992Z,1007.12
2023-05-01T11:33:07.145Z,1007.14
2023-05-01T11:34:05.974Z,1007.14
2023-05-01T11:35:06.009Z,1007.09
2023-05-01T11:36:05.936Z,1007.13
2023-05-01T11:37:05.915Z,1007.12
2023-05-01T11:38:07.385Z,1007.15
2023-05-01T11:39:05.948Z,1007.15
2023-05-01T11:40:05.927Z,1007.15
2023-05-01T11:41:05.880Z,1007.12
2023-05-01T11:42:05.966Z,1007.17
2023-05-01T11:43:05.841Z,1007.13
2023-05-01T11:44:05.884Z,1007.16
2023-05-01T11:45:07.572Z,1007.14
2023-05-01T11:46:05.860Z,1007.18
2023-05-01T11:47:05.797Z,1007.10
2023-05-01T11:48:05.866Z,1007.09
2023-05-01T11:49:05.786Z,1007.12
2023-05-01T11:50:05.806Z,1007.09
2023-05-01T11:51:05.760Z,1007.09
2023-05-01T11:52:05.757Z,1007.03
2023-05-01T11:53:05.744Z,1007.03
2023-05-01T11:54:05.839Z,1007.05
2023-05-01T11:55:05.860Z,1007.04
2023-05-01T11:56:10.888Z,1007.05
2023-05-01T11:57:06.695Z,1007.00
2023-05-01T11:58:05.696Z,1007.02
2023-05-01T11:59:05.670Z,1007.02
2023-05-01T12:00:06.558Z,1007.00
2023-05-01T12:01:07.582Z,1006.95
2023-05-01T12:02:05.719Z,1006.92
2023-05-01T12:03:05.820Z,1006.90
2023-05-01T12:04:05.755Z,1006.88
2023-05-01T12:05:07.909Z,1006.94
2023-05-01T12:06:05.795Z,1006.89